createdAt,value
2018-09-05T01:31:24.651Z,22.18
2018-09-05T01:31:25.219Z,22.18
2018-09-05T01:31:25.821Z,22.27
2018-09-05T01:31:26.420Z,22.27
2018-09-05T01:31:27.019Z,22.27
2018-09-05T01:31:27.620Z,22.27
2018-09-05T01:31:28.219Z,22.27
2018-09-05T01:31:28.819Z,22.27
2018-09-05T01:32:22.299Z,22.75
2018-09-05T01:32:22.873Z,22.75
2018-09-05T01:32:23.472Z,22.85
2018-09-05T01:32:24.073Z,22.66
2018-09-05T01:32:24.672Z,22.66
2018-09-05T01:32:25.272Z,22.66
2018-09-05T01:32:25.878Z,22.56
2018-09-05T01:32:26.471Z,22.75
2018-09-05T01:33:20.974Z,22.85
2018-09-05T01:33:21.547Z,22.37
2018-09-05T01:33:22.147Z,22.56
2018-09-05T01:33:22.748Z,22.56
2018-09-05T01:33:23.346Z,22.75
2018-09-05T01:33:23.948Z,22.66
2018-09-05T01:33:24.547Z,22.75
2018-09-05T01:33:25.147Z,22.75
2018-09-05T01:34:18.629Z,21.70
2018-09-05T01:34:19.203Z,21.80
2018-09-05T01:34:19.801Z,21.51
2018-09-05T01:34:20.401Z,21.41
2018-09-05T01:34:21.000Z,21.61
2018-09-05T01:34:21.602Z,21.51
2018-09-05T01:34:22.201Z,21.61
2018-09-05T01:34:22.799Z,21.70
2018-09-05T01:35:16.278Z,20.65
2018-09-05T01:35:16.854Z,20.46
2018-09-05T01:35:17.456Z,20.55
2018-09-05T01:35:18.054Z,20.75
2018-09-05T01:35:18.654Z,20.46
2018-09-05T01:35:19.256Z,20.84
2018-09-05T01:35:19.852Z,20.55
2018-09-05T01:35:20.450Z,20.46
2018-09-05T01:36:14.958Z,19.89
2018-09-05T01:36:15.529Z,19.98
2018-09-05T01:36:16.131Z,20.07
2018-09-05T01:36:16.729Z,19.69
2018-09-05T01:36:17.328Z,19.89
2018-09-05T01:36:17.929Z,19.89
2018-09-05T01:36:18.527Z,19.79
2018-09-05T01:36:19.128Z,19.60
2018-09-05T01:37:12.609Z,18.74
2018-09-05T01:37:13.183Z,18.93
2018-09-05T01:37:13.781Z,18.74
2018-09-05T01:37:14.381Z,18.83
2018-09-05T01:37:14.981Z,18.93
2018-09-05T01:37:15.581Z,18.74
2018-09-05T01:37:16.180Z,18.83
2018-09-05T01:37:16.780Z,18.83
2018-09-05T01:38:11.283Z,19.60
2018-09-05T01:38:11.857Z,19.40
2018-09-05T01:38:12.457Z,19.50
2018-09-05T01:38:13.057Z,19.60
2018-09-05T01:38:13.656Z,19.50
2018-09-05T01:38:14.256Z,19.12
2018-09-05T01:38:14.855Z,19.21
2018-09-05T01:38:15.456Z,19.21
2018-09-05T01:39:08.941Z,20.07
2018-09-05T01:39:09.544Z,20.07
2018-09-05T01:39:10.111Z,20.26
2018-09-05T01:39:10.709Z,20.26
2018-09-05T01:39:11.309Z,20.46
2018-09-05T01:39:11.908Z,20.46
2018-09-05T01:39:12.512Z,20.46
2018-09-05T01:39:13.108Z,20.46
2018-09-05T01:40:07.612Z,20.36
2018-09-05T01:40:08.184Z,20.36
2018-09-05T01:40:08.788Z,20.46
2018-09-05T01:40:09.383Z,20.94
2018-09-05T01:40:09.984Z,20.94
2018-09-05T01:40:10.583Z,20.36
2018-09-05T01:40:11.183Z,20.84
2018-09-05T01:40:11.782Z,20.46
2018-09-05T01:41:05.266Z,20.36
2018-09-05T01:41:05.836Z,20.46
2018-09-05T01:41:06.436Z,20.46
2018-09-05T01:41:07.038Z,20.46
2018-09-05T01:41:07.639Z,20.65
2018-09-05T01:41:08.239Z,20.55
2018-09-05T01:41:08.837Z,20.55
2018-09-05T01:41:09.437Z,20.55
2018-09-05T01:42:02.918Z,18.74
2018-09-05T01:42:03.488Z,18.83
2018-09-05T01:42:04.089Z,18.64
2018-09-05T01:42:04.688Z,18.64
2018-09-05T01:42:05.288Z,18.64
2018-09-05T01:42:05.888Z,18.74
2018-09-05T01:42:06.488Z,18.74
2018-09-05T01:42:07.088Z,18.64
2018-09-05T01:43:00.570Z,18.16
2018-09-05T01:43:01.140Z,18.16
2018-09-05T01:43:01.741Z,18.16
2018-09-05T01:43:02.343Z,17.97
2018-09-05T01:43:02.939Z,18.26
2018-09-05T01:43:03.541Z,18.07
2018-09-05T01:43:04.140Z,18.26
2018-09-05T01:43:04.740Z,17.78
2018-09-05T01:43:58.219Z,17.30
2018-09-05T01:43:58.793Z,17.40
2018-09-05T01:43:59.395Z,17.49
2018-09-05T01:43:59.991Z,17.30
2018-09-05T01:44:00.593Z,17.49
2018-09-05T01:44:01.191Z,17.30
2018-09-05T01:44:01.791Z,17.30
2018-09-05T01:44:02.392Z,17.21
2018-09-05T01:44:55.872Z,16.82
2018-09-05T01:44:56.445Z,17.11
2018-09-05T01:44:57.045Z,16.92
2018-09-05T01:44:57.645Z,17.21
2018-09-05T01:44:58.244Z,16.82
2018-09-05T01:44:58.844Z,17.30
2018-09-05T01:44:59.443Z,17.21
2018-09-05T01:45:00.045Z,17.21
2018-09-05T01:45:53.532Z,17.02
2018-09-05T01:45:54.096Z,16.92
2018-09-05T01:45:54.707Z,16.44
2018-09-05T01:45:55.298Z,16.92
2018-09-05T01:45:55.895Z,17.02
2018-09-05T01:45:56.496Z,16.63
2018-09-05T01:45:57.094Z,16.73
2018-09-05T01:45:57.697Z,16.92
2018-09-05T01:46:51.176Z,17.88
2018-09-05T01:46:51.751Z,17.11
2018-09-05T01:46:52.350Z,17.88
2018-09-05T01:46:52.948Z,17.59
2018-09-05T01:46:53.549Z,17.68
2018-09-05T01:46:54.190Z,18.07
2018-09-05T01:46:54.749Z,17.78
2018-09-05T01:46:55.347Z,17.78
2018-09-05T01:47:48.826Z,17.97
2018-09-05T01:47:49.400Z,17.97
2018-09-05T01:47:50.001Z,18.16
2018-09-05T01:47:50.601Z,18.07
2018-09-05T01:47:51.199Z,18.07
2018-09-05T01:47:51.798Z,18.26
2018-09-05T01:47:52.399Z,18.07
2018-09-05T01:47:52.999Z,18.07
2018-09-05T01:48:46.479Z,18.35
2018-09-05T01:48:47.052Z,17.59
2018-09-05T01:48:47.650Z,17.59
2018-09-05T01:48:48.251Z,17.59
2018-09-05T01:48:48.851Z,17.78
2018-09-05T01:48:49.451Z,18.07
2018-09-05T01:48:50.052Z,17.88
2018-09-05T01:48:50.651Z,18.07
2018-09-05T01:49:44.132Z,16.16
2018-09-05T01:49:44.703Z,16.25
2018-09-05T01:49:45.304Z,16.16
2018-09-05T01:49:45.905Z,15.96
2018-09-05T01:49:46.500Z,15.96
2018-09-05T01:49:47.102Z,15.87
2018-09-05T01:49:47.701Z,15.97
2018-09-05T01:49:48.301Z,15.87
2018-09-05T01:50:42.805Z,15.77
2018-09-05T01:50:43.378Z,15.77
2018-09-05T01:50:43.978Z,15.67
2018-09-05T01:50:44.577Z,15.67
2018-09-05T01:50:45.178Z,15.77
2018-09-05T01:50:45.777Z,15.77
2018-09-05T01:50:46.376Z,15.67
2018-09-05T01:50:46.978Z,15.87
2018-09-05T01:51:41.483Z,16.55
2018-09-05T01:51:42.131Z,16.35
2018-09-05T01:51:42.660Z,16.55
2018-09-05T01:51:43.255Z,16.55
2018-09-05T01:51:43.856Z,16.55
2018-09-05T01:51:44.454Z,16.92
2018-09-05T01:51:45.053Z,16.73
2018-09-05T01:51:45.654Z,16.63
2018-09-05T01:52:40.158Z,17.30
2018-09-05T01:52:40.730Z,17.40
2018-09-05T01:52:41.330Z,17.31
2018-09-05T01:52:41.934Z,17.21
2018-09-05T01:52:42.530Z,17.21
2018-09-05T01:52:43.131Z,17.30
2018-09-05T01:52:43.730Z,17.30
2018-09-05T01:52:44.340Z,17.30
2018-09-05T01:53:38.834Z,17.68
2018-09-05T01:53:39.407Z,17.60
2018-09-05T01:53:40.008Z,17.79
2018-09-05T01:53:40.605Z,17.69
2018-09-05T01:53:41.205Z,18.07
2018-09-05T01:53:41.809Z,18.26
2018-09-05T01:53:42.408Z,18.27
2018-09-05T01:53:43.005Z,17.50
2018-09-05T01:54:36.486Z,18.35
2018-09-05T01:54:37.059Z,18.45
2018-09-05T01:54:37.659Z,18.27
2018-09-05T01:54:38.258Z,18.65
2018-09-05T01:54:38.858Z,18.54
2018-09-05T01:54:39.463Z,18.27
2018-09-05T01:54:40.057Z,18.65
2018-09-05T01:54:40.659Z,18.27
2018-09-05T01:55:35.161Z,19.02
2018-09-05T01:55:35.732Z,19.13
2018-09-05T01:55:36.332Z,19.13
2018-09-05T01:55:36.938Z,19.13
2018-09-05T01:55:37.533Z,19.23
2018-09-05T01:55:38.135Z,19.13
2018-09-05T01:55:38.736Z,18.94
2018-09-05T01:55:39.332Z,19.13
2018-09-05T01:56:33.836Z,19.13
2018-09-05T01:56:34.412Z,19.13
2018-09-05T01:56:35.009Z,19.03
2018-09-05T01:56:35.608Z,19.23
2018-09-05T01:56:36.209Z,18.94
2018-09-05T01:56:36.810Z,19.03
2018-09-05T01:56:37.409Z,19.23
2018-09-05T01:56:38.009Z,19.03
2018-09-05T01:57:32.517Z,19.32
2018-09-05T01:57:33.084Z,19.32
2018-09-05T01:57:33.688Z,19.13
2018-09-05T01:57:34.288Z,19.13
2018-09-05T01:57:34.884Z,19.23
2018-09-05T01:57:35.483Z,19.23
2018-09-05T01:57:36.084Z,19.51
2018-09-05T01:57:36.689Z,19.23
2018-09-05T01:58:31.188Z,19.80
2018-09-05T01:58:31.762Z,19.99
2018-09-05T01:58:32.361Z,19.70
2018-09-05T01:58:32.964Z,19.99
2018-09-05T01:58:33.560Z,20.09
2018-09-05T01:58:34.159Z,20.18
2018-09-05T01:58:34.763Z,19.89
2018-09-05T01:58:35.362Z,19.80
2018-09-05T01:59:29.864Z,20.47
2018-09-05T01:59:30.436Z,20.85
2018-09-05T01:59:31.036Z,20.37
2018-09-05T01:59:31.635Z,20.18
2018-09-05T01:59:32.239Z,20.18
2018-09-05T01:59:32.838Z,20.37
2018-09-05T01:59:33.435Z,20.18
2018-09-05T01:59:34.036Z,20.28
2018-09-05T02:00:28.540Z,20.47
2018-09-05T02:00:29.114Z,20.47
2018-09-05T02:00:29.712Z,20.56
2018-09-05T02:00:30.313Z,20.56
2018-09-05T02:00:30.920Z,20.56
2018-09-05T02:00:31.517Z,20.56
2018-09-05T02:00:32.112Z,20.56
2018-09-05T02:00:32.712Z,20.47
2018-09-05T02:01:27.220Z,21.04
2018-09-05T02:01:27.787Z,20.85
2018-09-05T02:01:28.387Z,21.42
2018-09-05T02:01:28.990Z,21.04
2018-09-05T02:01:29.589Z,21.42
2018-09-05T02:01:30.186Z,21.33
2018-09-05T02:01:30.787Z,21.23
2018-09-05T02:01:31.386Z,21.23
2018-09-05T02:02:25.890Z,21.90
2018-09-05T02:02:26.463Z,21.71
2018-09-05T02:02:27.064Z,21.81
2018-09-05T02:02:27.664Z,21.81
2018-09-05T02:02:28.263Z,21.90
2018-09-05T02:02:28.864Z,21.81
2018-09-05T02:02:29.462Z,21.71
2018-09-05T02:02:30.063Z,21.81
2018-09-05T02:03:24.567Z,22.76
2018-09-05T02:03:25.139Z,22.57
2018-09-05T02:03:25.738Z,22.47
2018-09-05T02:03:26.340Z,22.47
2018-09-05T02:03:26.939Z,22.57
2018-09-05T02:03:27.539Z,22.47
2018-09-05T02:03:28.139Z,22.57
2018-09-05T02:03:28.738Z,22.67
2018-09-05T02:04:23.242Z,23.05
2018-09-05T02:04:23.814Z,23.05
2018-09-05T02:04:24.415Z,23.05
2018-09-05T02:04:25.015Z,23.05
2018-09-05T02:04:25.615Z,22.86
2018-09-05T02:04:26.214Z,22.86
2018-09-05T02:04:26.814Z,23.05
2018-09-05T02:04:27.413Z,23.05
2018-09-05T02:05:21.919Z,24.10
2018-09-05T02:05:22.495Z,24.29
2018-09-05T02:05:23.091Z,24.49
2018-09-05T02:05:23.692Z,24.19
2018-09-05T02:05:24.294Z,24.39
2018-09-05T02:05:24.891Z,24.39
2018-09-05T02:05:25.491Z,24.29
2018-09-05T02:05:26.092Z,24.49
2018-09-05T02:06:20.595Z,25.54
2018-09-05T02:06:21.168Z,25.35
2018-09-05T02:06:21.771Z,25.54
2018-09-05T02:06:22.367Z,25.35
2018-09-05T02:06:22.966Z,25.44
2018-09-05T02:06:23.566Z,25.44
2018-09-05T02:06:24.166Z,25.35
2018-09-05T02:06:24.766Z,25.54
2018-09-05T02:07:19.268Z,26.11
2018-09-05T02:07:19.849Z,26.21
2018-09-05T02:07:20.442Z,26.11
2018-09-05T02:07:21.041Z,26.50
2018-09-05T02:07:21.642Z,26.50
2018-09-05T02:07:22.242Z,26.50
2018-09-05T02:07:22.842Z,26.30
2018-09-05T02:07:23.442Z,26.40
2018-09-05T02:08:16.939Z,26.30
2018-09-05T02:08:17.502Z,26.50
2018-09-05T02:08:18.113Z,26.59
2018-09-05T02:08:18.701Z,26.68
2018-09-05T02:08:19.332Z,26.68
2018-09-05T02:08:19.937Z,26.30
2018-09-05T02:08:20.533Z,26.68
2018-09-05T02:08:21.098Z,26.50
2018-09-05T02:09:14.575Z,26.97
2018-09-05T02:09:15.149Z,27.16
2018-09-05T02:09:15.753Z,27.07
2018-09-05T02:09:16.350Z,26.87
2018-09-05T02:09:16.946Z,27.26
2018-09-05T02:09:17.547Z,27.55
2018-09-05T02:09:18.147Z,27.16
2018-09-05T02:09:18.747Z,27.36
2018-09-05T02:10:12.227Z,27.16
2018-09-05T02:10:12.798Z,26.87
2018-09-05T02:10:13.397Z,27.07
2018-09-05T02:10:13.999Z,26.97
2018-09-05T02:10:14.598Z,27.55
2018-09-05T02:10:15.198Z,27.07
2018-09-05T02:10:15.800Z,27.55
2018-09-05T02:10:16.398Z,27.73
2018-09-05T02:11:09.879Z,27.73
2018-09-05T02:11:10.450Z,27.83
2018-09-05T02:11:11.050Z,27.93
2018-09-05T02:11:11.652Z,27.93
2018-09-05T02:11:12.250Z,27.73
2018-09-05T02:11:12.850Z,28.22
2018-09-05T02:11:13.450Z,27.83
2018-09-05T02:11:14.050Z,27.64
2018-09-05T02:12:08.554Z,28.02
2018-09-05T02:12:09.124Z,28.22
2018-09-05T02:12:09.725Z,28.22
2018-09-05T02:12:10.324Z,28.12
2018-09-05T02:12:10.927Z,27.93
2018-09-05T02:12:11.525Z,28.59
2018-09-05T02:12:12.125Z,27.93
2018-09-05T02:12:12.723Z,28.41
2018-09-05T02:13:06.204Z,28.22
2018-09-05T02:13:06.778Z,28.12
2018-09-05T02:13:07.378Z,28.22
2018-09-05T02:13:07.978Z,28.41
2018-09-05T02:13:08.580Z,28.41
2018-09-05T02:13:09.178Z,28.22
2018-09-05T02:13:09.778Z,28.22
2018-09-05T02:13:10.378Z,28.41
2018-09-05T02:14:04.881Z,27.93
2018-09-05T02:14:05.453Z,27.93
2018-09-05T02:14:06.053Z,27.73
2018-09-05T02:14:06.657Z,28.02
2018-09-05T02:14:07.253Z,27.83
2018-09-05T02:14:07.851Z,28.02
2018-09-05T02:14:08.452Z,28.02
2018-09-05T02:14:09.051Z,27.73
2018-09-05T02:15:03.558Z,27.64
2018-09-05T02:15:04.129Z,27.73
2018-09-05T02:15:04.729Z,27.64
2018-09-05T02:15:05.328Z,27.73
2018-09-05T02:15:05.928Z,27.73
2018-09-05T02:15:06.528Z,27.73
2018-09-05T02:15:07.127Z,27.83
2018-09-05T02:15:07.728Z,27.83
2018-09-05T02:16:02.231Z,27.16
2018-09-05T02:16:02.803Z,27.16
2018-09-05T02:16:03.404Z,26.87
2018-09-05T02:16:04.005Z,27.16
2018-09-05T02:16:04.604Z,27.07
2018-09-05T02:16:05.203Z,26.87
2018-09-05T02:16:05.804Z,26.97
2018-09-05T02:16:06.403Z,26.97
2018-09-05T02:16:59.902Z,26.78
2018-09-05T02:17:00.456Z,26.78
2018-09-05T02:17:01.056Z,26.78
2018-09-05T02:17:01.657Z,26.97
2018-09-05T02:17:02.255Z,26.97
2018-09-05T02:17:02.856Z,26.97
2018-09-05T02:17:03.456Z,26.97
2018-09-05T02:17:04.056Z,26.97
2018-09-05T02:17:57.534Z,26.40
2018-09-05T02:17:58.108Z,26.68
2018-09-05T02:17:58.707Z,26.40
2018-09-05T02:17:59.308Z,26.50
2018-09-05T02:17:59.907Z,26.59
2018-09-05T02:18:00.506Z,26.50
2018-09-05T02:18:01.107Z,26.59
2018-09-05T02:18:01.707Z,26.50
2018-09-05T02:18:56.214Z,25.73
2018-09-05T02:18:56.786Z,25.92
2018-09-05T02:18:57.384Z,25.92
2018-09-05T02:18:57.983Z,25.82
2018-09-05T02:18:58.584Z,25.82
2018-09-05T02:18:59.183Z,25.82
2018-09-05T02:18:59.782Z,25.63
2018-09-05T02:19:00.382Z,25.73
2018-09-05T02:19:53.863Z,26.11
2018-09-05T02:19:54.436Z,26.11
2018-09-05T02:19:55.037Z,26.40
2018-09-05T02:19:55.635Z,26.40
2018-09-05T02:19:56.234Z,26.40
2018-09-05T02:19:56.834Z,26.40
2018-09-05T02:19:57.437Z,26.21
2018-09-05T02:19:58.041Z,26.21
2018-09-05T02:20:52.537Z,26.50
2018-09-05T02:20:53.110Z,26.30
2018-09-05T02:20:53.712Z,26.30
2018-09-05T02:20:54.310Z,26.30
2018-09-05T02:20:54.910Z,26.40
2018-09-05T02:20:55.509Z,26.40
2018-09-05T02:20:56.109Z,26.50
2018-09-05T02:20:56.709Z,26.50
2018-09-05T02:21:51.214Z,26.87
2018-09-05T02:21:51.785Z,26.59
2018-09-05T02:21:52.385Z,26.59
2018-09-05T02:21:52.990Z,26.59
2018-09-05T02:21:53.589Z,26.87
2018-09-05T02:21:54.187Z,26.78
2018-09-05T02:21:54.787Z,26.59
2018-09-05T02:21:55.386Z,26.40
2018-09-05T02:22:49.888Z,25.73
2018-09-05T02:22:50.466Z,25.73
2018-09-05T02:22:51.060Z,25.82
2018-09-05T02:22:51.660Z,26.01
2018-09-05T02:22:52.266Z,25.82
2018-09-05T02:22:52.861Z,25.82
2018-09-05T02:22:53.467Z,25.73
2018-09-05T02:22:54.060Z,25.92
2018-09-05T02:23:47.542Z,25.63
2018-09-05T02:23:48.113Z,25.63
2018-09-05T02:23:48.714Z,25.44
2018-09-05T02:23:49.315Z,25.63
2018-09-05T02:23:49.913Z,25.73
2018-09-05T02:23:50.514Z,25.82
2018-09-05T02:23:51.115Z,25.63
2018-09-05T02:23:51.713Z,25.63
2018-09-05T02:24:45.193Z,24.58
2018-09-05T02:24:45.766Z,24.58
2018-09-05T02:24:46.366Z,24.58
2018-09-05T02:24:46.969Z,24.58
2018-09-05T02:24:47.565Z,24.58
2018-09-05T02:24:48.167Z,24.58
2018-09-05T02:24:48.765Z,24.58
2018-09-05T02:24:49.370Z,24.58
2018-09-05T02:25:42.847Z,25.06
2018-09-05T02:25:43.422Z,24.77
2018-09-05T02:25:44.017Z,24.68
2018-09-05T02:25:44.619Z,24.87
2018-09-05T02:25:45.218Z,24.96
2018-09-05T02:25:45.816Z,24.96
2018-09-05T02:25:46.416Z,24.96
2018-09-05T02:25:47.015Z,24.58
2018-09-05T02:26:41.520Z,24.10
2018-09-05T02:26:42.091Z,24.10
2018-09-05T02:26:42.691Z,24.10
2018-09-05T02:26:43.292Z,24.10
2018-09-05T02:26:43.890Z,24.58
2018-09-05T02:26:44.491Z,24.10
2018-09-05T02:26:45.091Z,24.10
2018-09-05T02:26:45.692Z,24.58
2018-09-05T02:27:39.173Z,25.15
2018-09-05T02:27:39.744Z,25.44
2018-09-05T02:27:40.359Z,25.15
2018-09-05T02:27:40.946Z,25.25
2018-09-05T02:27:41.545Z,25.35
2018-09-05T02:27:42.147Z,25.15
2018-09-05T02:27:42.744Z,25.35
2018-09-05T02:27:43.343Z,25.35
2018-09-05T02:28:37.848Z,24.39
2018-09-05T02:28:38.420Z,24.19
2018-09-05T02:28:39.019Z,24.29
2018-09-05T02:28:39.621Z,24.29
2018-09-05T02:28:40.219Z,24.49
2018-09-05T02:28:40.819Z,24.49
2018-09-05T02:28:41.419Z,24.39
2018-09-05T02:28:42.019Z,24.58
2018-09-05T02:29:35.499Z,24.19
2018-09-05T02:29:36.072Z,24.01
2018-09-05T02:29:36.710Z,24.19
2018-09-05T02:29:37.271Z,24.19
2018-09-05T02:29:37.870Z,24.29
2018-09-05T02:29:38.473Z,24.01
2018-09-05T02:29:39.071Z,24.01
2018-09-05T02:29:39.672Z,24.01
2018-09-05T02:30:34.175Z,23.82
2018-09-05T02:30:34.748Z,24.10
2018-09-05T02:30:35.347Z,23.91
2018-09-05T02:30:35.946Z,23.91
2018-09-05T02:30:36.549Z,24.01
2018-09-05T02:30:37.152Z,24.01
2018-09-05T02:30:37.746Z,24.19
2018-09-05T02:30:38.346Z,23.91
2018-09-05T02:31:31.832Z,23.05
2018-09-05T02:31:32.399Z,23.14
2018-09-05T02:31:33.000Z,23.14
2018-09-05T02:31:33.600Z,23.43
2018-09-05T02:31:34.199Z,23.24
2018-09-05T02:31:34.798Z,23.24
2018-09-05T02:31:35.400Z,23.24
2018-09-05T02:31:36.003Z,23.24
2018-09-05T02:32:29.454Z,23.33
2018-09-05T02:32:30.051Z,23.14
2018-09-05T02:32:30.651Z,23.14
2018-09-05T02:32:31.253Z,23.33
2018-09-05T02:32:31.851Z,23.24
2018-09-05T02:32:32.451Z,23.14
2018-09-05T02:32:33.052Z,23.24
2018-09-05T02:32:33.651Z,23.14
2018-09-05T02:33:27.106Z,23.05
2018-09-05T02:33:27.712Z,23.05
2018-09-05T02:33:28.304Z,22.96
2018-09-05T02:33:28.903Z,23.05
2018-09-05T02:33:29.503Z,22.86
2018-09-05T02:33:30.103Z,22.96
2018-09-05T02:33:30.702Z,23.05
2018-09-05T02:33:31.302Z,22.96
2018-09-05T02:34:24.783Z,23.62
2018-09-05T02:34:25.355Z,23.91
2018-09-05T02:34:25.954Z,23.53
2018-09-05T02:34:26.556Z,23.72
2018-09-05T02:34:27.155Z,23.53
2018-09-05T02:34:27.754Z,23.62
2018-09-05T02:34:28.355Z,23.82
2018-09-05T02:34:28.953Z,23.82
2018-09-05T02:35:22.433Z,23.14
2018-09-05T02:35:23.011Z,23.43
2018-09-05T02:35:23.606Z,22.96
2018-09-05T02:35:24.207Z,23.24
2018-09-05T02:35:24.807Z,22.96
2018-09-05T02:35:25.406Z,23.14
2018-09-05T02:35:26.006Z,23.05
2018-09-05T02:35:26.606Z,23.05
2018-09-05T02:36:20.088Z,22.76
2018-09-05T02:36:20.659Z,22.76
2018-09-05T02:36:21.258Z,22.76
2018-09-05T02:36:21.861Z,22.76
2018-09-05T02:36:22.458Z,22.76
2018-09-05T02:36:23.057Z,22.86
2018-09-05T02:36:23.660Z,22.77
2018-09-05T02:36:24.260Z,22.67
2018-09-05T02:37:17.738Z,23.53
2018-09-05T02:37:18.312Z,23.14
2018-09-05T02:37:18.909Z,23.54
2018-09-05T02:37:19.511Z,23.43
2018-09-05T02:37:20.108Z,23.33
2018-09-05T02:37:20.710Z,23.24
2018-09-05T02:37:21.309Z,23.62
2018-09-05T02:37:21.909Z,23.43
2018-09-05T02:38:16.413Z,24.49
2018-09-05T02:38:16.984Z,24.39
2018-09-05T02:38:17.584Z,24.39
2018-09-05T02:38:18.187Z,24.49
2018-09-05T02:38:18.784Z,24.58
2018-09-05T02:38:19.385Z,24.19
2018-09-05T02:38:19.983Z,24.39
2018-09-05T02:38:20.583Z,24.40
2018-09-05T02:39:15.095Z,25.92
2018-09-05T02:39:15.662Z,25.54
2018-09-05T02:39:16.261Z,25.54
2018-09-05T02:39:16.860Z,25.92
2018-09-05T02:39:17.460Z,25.54
2018-09-05T02:39:18.059Z,25.82
2018-09-05T02:39:18.660Z,26.01
2018-09-05T02:39:19.259Z,26.01
2018-09-05T02:40:12.755Z,27.45
2018-09-05T02:40:13.364Z,26.97
2018-09-05T02:40:13.955Z,27.45
2018-09-05T02:40:14.581Z,27.55
2018-09-05T02:40:15.159Z,27.73
2018-09-05T02:40:15.765Z,27.64
2018-09-05T02:40:16.342Z,27.55
2018-09-05T02:40:16.941Z,27.64
2018-09-05T02:41:11.420Z,27.07
2018-09-05T02:41:11.988Z,26.97
2018-09-05T02:41:12.596Z,27.26
2018-09-05T02:41:13.188Z,27.36
2018-09-05T02:41:13.787Z,27.16
2018-09-05T02:41:14.387Z,27.16
2018-09-05T02:41:14.987Z,27.07
2018-09-05T02:41:15.589Z,27.16
2018-09-05T02:42:09.069Z,25.92
2018-09-05T02:42:09.641Z,25.73
2018-09-05T02:42:10.241Z,25.73
2018-09-05T02:42:10.840Z,25.63
2018-09-05T02:42:11.440Z,25.63
2018-09-05T02:42:12.039Z,25.63
2018-09-05T02:42:12.644Z,25.63
2018-09-05T02:42:13.252Z,25.73
2018-09-05T02:43:07.743Z,24.29
2018-09-05T02:43:08.316Z,24.39
2018-09-05T02:43:08.915Z,24.39
2018-09-05T02:43:09.517Z,24.49
2018-09-05T02:43:10.117Z,24.29
2018-09-05T02:43:10.715Z,24.39
2018-09-05T02:43:11.316Z,24.39
2018-09-05T02:43:11.916Z,24.39
2018-09-05T02:44:06.420Z,24.96
2018-09-05T02:44:06.991Z,24.68
2018-09-05T02:44:07.592Z,24.96
2018-09-05T02:44:08.196Z,24.96
2018-09-05T02:44:08.791Z,24.87
2018-09-05T02:44:09.391Z,24.77
2018-09-05T02:44:09.990Z,24.87
2018-09-05T02:44:10.589Z,24.77
2018-09-05T02:45:05.095Z,24.29
2018-09-05T02:45:05.666Z,24.10
2018-09-05T02:45:06.266Z,24.19
2018-09-05T02:45:06.867Z,24.21
2018-09-05T02:45:07.468Z,24.19
2018-09-05T02:45:08.066Z,24.01
2018-09-05T02:45:08.666Z,24.19
2018-09-05T02:45:09.266Z,24.19
2018-09-05T02:46:02.748Z,24.50
2018-09-05T02:46:03.320Z,24.10
2018-09-05T02:46:03.918Z,24.10
2018-09-05T02:46:04.521Z,24.19
2018-09-05T02:46:05.119Z,24.40
2018-09-05T02:46:05.723Z,24.19
2018-09-05T02:46:06.319Z,24.29
2018-09-05T02:46:06.921Z,24.19
2018-09-05T02:47:00.400Z,25.06
2018-09-05T02:47:00.971Z,24.96
2018-09-05T02:47:01.572Z,24.29
2018-09-05T02:47:02.173Z,25.15
2018-09-05T02:47:02.771Z,25.25
2018-09-05T02:47:03.372Z,25.25
2018-09-05T02:47:03.976Z,25.25
2018-09-05T02:47:04.573Z,25.25
2018-09-05T02:47:58.054Z,25.54
2018-09-05T02:47:58.624Z,25.44
2018-09-05T02:47:59.223Z,25.54
2018-09-05T02:47:59.830Z,25.54
2018-09-05T02:48:00.422Z,25.82
2018-09-05T02:48:01.030Z,25.54
2018-09-05T02:48:01.621Z,25.84
2018-09-05T02:48:02.226Z,25.82
2018-09-05T02:48:55.701Z,26.78
2018-09-05T02:48:56.278Z,26.68
2018-09-05T02:48:56.874Z,26.68
2018-09-05T02:48:57.476Z,26.68
2018-09-05T02:48:58.077Z,26.68
2018-09-05T02:48:58.674Z,26.78
2018-09-05T02:48:59.273Z,26.59
2018-09-05T02:48:59.878Z,26.50
2018-09-05T02:49:54.377Z,28.02
2018-09-05T02:49:54.950Z,28.02
2018-09-05T02:49:55.552Z,28.12
2018-09-05T02:49:56.150Z,28.02
2018-09-05T02:49:56.748Z,28.02
2018-09-05T02:49:57.348Z,28.02
2018-09-05T02:49:57.949Z,28.02
2018-09-05T02:49:58.553Z,28.02
2018-09-05T02:50:53.052Z,28.69
2018-09-05T02:50:53.626Z,28.69
2018-09-05T02:50:54.225Z,28.79
2018-09-05T02:50:54.858Z,28.69
2018-09-05T02:50:55.425Z,28.69
2018-09-05T02:50:56.026Z,28.69
2018-09-05T02:50:56.624Z,28.50
2018-09-05T02:50:57.225Z,28.69
2018-09-05T02:51:50.706Z,29.36
2018-09-05T02:51:51.283Z,29.27
2018-09-05T02:51:51.879Z,29.27
2018-09-05T02:51:52.483Z,28.98
2018-09-05T02:51:53.090Z,28.98
2018-09-05T02:51:53.677Z,28.98
2018-09-05T02:51:54.278Z,28.98
2018-09-05T02:51:54.877Z,28.98
2018-09-05T02:52:48.359Z,29.55
2018-09-05T02:52:48.931Z,29.55
2018-09-05T02:52:49.533Z,29.46
2018-09-05T02:52:50.132Z,29.46
2018-09-05T02:52:50.730Z,29.36
2018-09-05T02:52:51.331Z,29.36
2018-09-05T02:52:51.929Z,29.46
2018-09-05T02:52:52.532Z,29.55
2018-09-05T02:53:47.032Z,28.98
2018-09-05T02:53:47.605Z,29.08
2018-09-05T02:53:48.204Z,28.98
2018-09-05T02:53:48.804Z,28.88
2018-09-05T02:53:49.404Z,28.59
2018-09-05T02:53:50.004Z,28.59
2018-09-05T02:53:50.603Z,28.69
2018-09-05T02:53:51.205Z,28.59
2018-09-05T02:54:45.707Z,26.68
2018-09-05T02:54:46.280Z,26.68
2018-09-05T02:54:46.880Z,26.68
2018-09-05T02:54:47.480Z,26.40
2018-09-05T02:54:48.080Z,26.21
2018-09-05T02:54:48.680Z,26.40
2018-09-05T02:54:49.280Z,26.40
2018-09-05T02:54:49.879Z,26.30
2018-09-05T02:55:43.359Z,24.58
2018-09-05T02:55:43.932Z,24.77
2018-09-05T02:55:44.532Z,24.87
2018-09-05T02:55:45.133Z,24.77
2018-09-05T02:55:45.734Z,24.77
2018-09-05T02:55:46.332Z,24.87
2018-09-05T02:55:46.933Z,24.77
2018-09-05T02:55:47.535Z,24.77
2018-09-05T02:56:42.035Z,25.15
2018-09-05T02:56:42.607Z,25.35
2018-09-05T02:56:43.206Z,24.96
2018-09-05T02:56:43.807Z,25.25
2018-09-05T02:56:44.408Z,25.35
2018-09-05T02:56:45.007Z,25.35
2018-09-05T02:56:45.606Z,25.44
2018-09-05T02:56:46.207Z,25.44
2018-09-05T02:57:39.687Z,26.11
2018-09-05T02:57:40.263Z,26.30
2018-09-05T02:57:40.861Z,26.11
2018-09-05T02:57:41.462Z,26.30
2018-09-05T02:57:42.060Z,26.40
2018-09-05T02:57:42.664Z,26.40
2018-09-05T02:57:43.262Z,26.40
2018-09-05T02:57:43.862Z,26.21
2018-09-05T02:58:38.363Z,26.87
2018-09-05T02:58:38.936Z,26.59
2018-09-05T02:58:39.535Z,26.50
2018-09-05T02:58:40.135Z,26.40
2018-09-05T02:58:40.736Z,26.40
2018-09-05T02:58:41.334Z,26.40
2018-09-05T02:58:41.934Z,26.40
2018-09-05T02:58:42.535Z,26.30
2018-09-05T02:59:36.016Z,25.54
2018-09-05T02:59:36.588Z,25.54
2018-09-05T02:59:37.187Z,25.54
2018-09-05T02:59:37.789Z,25.63
2018-09-05T02:59:38.386Z,25.54
2018-09-05T02:59:38.986Z,25.63
2018-09-05T02:59:39.588Z,25.73
2018-09-05T02:59:40.189Z,25.44
2018-09-05T03:00:33.666Z,26.59
2018-09-05T03:00:34.239Z,26.68
2018-09-05T03:00:34.839Z,26.59
2018-09-05T03:00:35.444Z,26.78
2018-09-05T03:00:36.039Z,26.68
2018-09-05T03:00:36.638Z,26.50
2018-09-05T03:00:37.240Z,26.50
2018-09-05T03:00:37.837Z,26.40
2018-09-05T03:01:32.341Z,27.64
2018-09-05T03:01:32.915Z,27.73
2018-09-05T03:01:33.513Z,27.64
2018-09-05T03:01:34.115Z,27.93
2018-09-05T03:01:34.715Z,27.73
2018-09-05T03:01:35.315Z,27.83
2018-09-05T03:01:35.913Z,27.93
2018-09-05T03:01:36.519Z,28.02
2018-09-05T03:02:29.993Z,28.79
2018-09-05T03:02:30.566Z,28.88
2018-09-05T03:02:31.169Z,28.98
2018-09-05T03:02:31.767Z,28.98
2018-09-05T03:02:32.368Z,28.98
2018-09-05T03:02:32.966Z,28.98
2018-09-05T03:02:33.570Z,28.98
2018-09-05T03:02:34.169Z,29.55
2018-09-05T03:03:28.669Z,29.27
2018-09-05T03:03:29.241Z,29.27
2018-09-05T03:03:29.840Z,29.27
2018-09-05T03:03:30.440Z,29.27
2018-09-05T03:03:31.041Z,29.27
2018-09-05T03:03:31.641Z,29.08
2018-09-05T03:03:32.275Z,29.17
2018-09-05T03:03:32.840Z,29.08
2018-09-05T03:04:26.320Z,29.17
2018-09-05T03:04:26.894Z,29.17
2018-09-05T03:04:27.493Z,29.27
2018-09-05T03:04:28.096Z,29.36
2018-09-05T03:04:28.694Z,29.36